This is the latest recevied weather packets stored in our database for station/object 9W2CEW-1. If no packets are shown the sender has not sent any weather packets the latest 10 day(s).
| Time | Temp. | Humidity | Pressure | Rain* | Wind** | Luminosity | Snow |
|---|---|---|---|---|---|---|---|
| 1777500567 | 28.89° C | 89% | 1003.3 hPa | - | - | - | - |
| 1777496067 | 29.44° C | 87% | 1003.6 hPa | - | - | - | - |
| 1777494267 | 28.89° C | 89% | 1003.4 hPa | - | - | - | - |
| 1777493367 | 29.44° C | 86% | 1003.6 hPa | - | - | - | - |
| 1777492467 | 28.89° C | 87% | 1003.9 hPa | - | - | - | - |
| 1777491567 | 29.44° C | 87% | 1004 hPa | - | - | - | - |
| 1777490668 | 28.89° C | 87% | 1004.2 hPa | - | - | - | - |
| 1777487968 | 28.33° C | 91% | 1004.6 hPa | - | - | - | - |
| 1777487068 | 28.33° C | 90% | 1004.6 hPa | - | - | - | - |
| 1777486210 | 28.89° C | 88% | 1004.6 hPa | - | - | - | - |
| 1777486168 | 28.89° C | 88% | 1004.6 hPa | - | - | - | - |
| 1777485268 | 28.33° C | 94% | 1004.8 hPa | - | - | - | - |
| 1777484368 | 27.78° C | 99% | 1005.1 hPa | - | - | - | - |
| 1777483467 | 26.67° C | 100% | 1005 hPa | - | - | - | - |
| 1777481807 | 28.89° C | 89% | 1005.2 hPa | - | - | - | - |
| 1777480768 | 27.78° C | 94% | 1005.3 hPa | - | - | - | - |
| 1777479867 | 30° C | 78% | 1005 hPa | - | - | - | - |
| 1777478967 | 30° C | 80% | 1005.2 hPa | - | - | - | - |
| 1777469068 | 30.56° C | 76% | 1004 hPa | - | - | - | - |
| 1777468168 | 30.56° C | 77% | 1003.8 hPa | - | - | - | - |
| 1777466367 | 30° C | 83% | 1003.2 hPa | - | - | - | - |
| 1777465467 | 30° C | 82% | 1003 hPa | - | - | - | - |
| 1777464567 | 29.44° C | 84% | 1003.1 hPa | - | - | - | - |
| 1777462767 | 30° C | 82% | 1002.7 hPa | - | - | - | - |
| 1777461867 | 28.89° C | 88% | 1002.6 hPa | - | - | - | - |
* Rain since midnight (hover to see other rain measurements)
** Current wind speed in m/s (hover to see current wind gust speed)